Airfield :
LOGIN :

Register | Disclaimer

   EN    FR    IT 

 










Legend :    VFR   Marginal VFR   IFR   Intensive IFR   Very Intensive IFR
Visi :
Ceiling :
>= 8 km
>= 3000ft
5 to 8 km
1000 to 3000 ft
1500m to 5 km
500 to 1000 ft
800 to 1500m
200 to 500 ft
< 800m
< 200 ft
Symbols :   Thunderstorms  Fog  Heavy snow  Heavy precipitations  Wind > 20 kt
SIGMETs :     Misc.  Thunderstorms  Icing  Turbulence  Mountain Waves  Volcanic Ashes






- Airport Elevation : 194 ft


EBCV - Chièvres

CURRENT METAR :
  • 270825Z AUTO 15011KT 7000 -RA OVC008/// 02/01 Q0998 GRN

EXPIRED METARs :
  • 270755Z AUTO 15010KT 7000 -RA OVC009/// 02/01 Q0999 GRN
  • 270725Z AUTO 16009KT 7000 -RA OVC010/// 03/01 Q1000 GRN
  • 270655Z AUTO 16010KT 9000 -RA OVC011/// 03/01 Q1000 GRN
  • 270637Z AUTO 17010KT 9000 -RA BKN012/// OVC021/// 03/01 Q1001 GRN
  • 270617Z AUTO 18010KT 9999 -DZ SCT021/// OVC059/// 03/01 Q1001 WHT
  • 270555Z AUTO 18009KT 9999 -DZ OVC060/// 03/01 Q1002 BLU
  • 270525Z AUTO 17008KT 9999 OVC067/// 03/01 Q1002 BLU

TAF TAF EBCV
Valid from the 27 at 07:00 until the 27 at 16:00 UTC


270541Z 2707/2716 17009KT 6000 -RA SCT012 BKN015
TEMPO 2707/2716 08007KT 3000 -RASN BKN004 OVC008
PROB40
TEMPO 2711/2716 1500 SNRA BKN002 OVC005
BECMG 2713/2715 32012G25KT BY EBWM



MET'MAP, your aeronautical weather chart ! - Copyright ORBIFLY December 2007 - Disclaimer

ORBIFLY MET'MAP TEAM :

Programming & Development : Alexandra Zaïnal
Concept & original design : Baudouin d'Aumeries
Assistance for programming : Marc-Olivier Méhu
Technical & hardware support : Manuel Goepfert

Contact : metmap@orbifly.com




SOURCES & CREDITS :

   NOAA